Observation data for Memphis on 11/18/2019      Previous  Date  Next       Current Mesonet Observations  Soil Data  Daily Summary Page  Observations in Plain Language
KMES 180600Z 34002KT 02/M03 A3003 RMK A01 T00211028  RH  071%=      5-min Rain = 0
KMES 180605Z 35002KT 02/M03 A3003 RMK A01 T00211030  RH  070%=      5-min Rain = 0
KMES 180610Z 35002KT 02/M03 A3002 RMK A01 T00241026  RH  070%=      5-min Rain = 0
KMES 180615Z 35002KT 03/M02 A3002 RMK A01 T00271024  RH  069%=      5-min Rain = 0
KMES 180620Z 34001KT 03/M02 A3002 RMK A01 T00281022  RH  070%=      5-min Rain = 0
KMES 180625Z 33001KT 03/M02 A3002 RMK A01 T00301020  RH  070%=      5-min Rain = 0
KMES 180630Z 33002KT 03/M02 A3002 RMK A01 T00311021  RH  069%=      5-min Rain = 0
KMES 180635Z 34002KT 03/M03 A3002 RMK A01 T00271025  RH  069%=      5-min Rain = 0
KMES 180640Z 32003KT 03/M02 A3002 RMK A01 T00261023  RH  071%=      5-min Rain = 0
KMES 180645Z 33003KT 03/M02 A3002 RMK A01 T00281021  RH  071%=      5-min Rain = 0
KMES 180650Z 33003KT 03/M02 A3002 RMK A01 T00271022  RH  071%=      5-min Rain = 0
KMES 180655Z 31003KT 03/M02 A3002 RMK A01 T00301017  RH  072%=      5-min Rain = 0
KMES 180700Z 30002KT 03/M02 A3001 RMK A01 T00341018  RH  069%=      5-min Rain = 0
KMES 180705Z 30002KT 03/M02 A3001 RMK A01 T00301022  RH  069%=      5-min Rain = 0
KMES 180710Z 36000KT 03/M03 A3001 RMK A01 T00261026  RH  069%=      5-min Rain = 0
KMES 180715Z 36002KT 02/M03 A3001 RMK A01 T00191034  RH  068%=      5-min Rain = 0
KMES 180720Z 34002KT 02/M03 A3001 RMK A01 T00181029  RH  072%=      5-min Rain = 0
KMES 180725Z 33002KT 03/M02 A3001 RMK A01 T00251020  RH  073%=      5-min Rain = 0
KMES 180730Z 32002KT 03/M02 A3001 RMK A01 T00281020  RH  072%=      5-min Rain = 0
KMES 180735Z 32002KT 03/M02 A3001 RMK A01 T00261021  RH  072%=      5-min Rain = 0
KMES 180740Z 31003KT 03/M02 A3001 RMK A01 T00251021  RH  072%=      5-min Rain = 0
KMES 180745Z 33002KT 02/M02 A3001 RMK A01 T00241023  RH  072%=      5-min Rain = 0
KMES 180750Z 33001KT 02/M03 A3001 RMK A01 T00191032  RH  070%=      5-min Rain = 0
KMES 180755Z 33002KT 01/M04 A3001 RMK A01 T00141035  RH  070%=      5-min Rain = 0
KMES 180800Z 33002KT 01/M03 A30 RMK A01 T00131032  RH  072%=      5-min Rain = 0
KMES 180805Z 32003KT 02/M03 A30 RMK A01 T00151028  RH  073%=      5-min Rain = 0
KMES 180810Z 31002KT 02/M03 A30 RMK A01 T00171027  RH  073%=      5-min Rain = 0
KMES 180815Z 34002KT 01/M03 A30 RMK A01 T00141034  RH  071%=      5-min Rain = 0
KMES 180820Z 34001KT 01/M03 A2999 RMK A01 T00121034  RH  072%=      5-min Rain = 0
KMES 180825Z 32001KT 01/M03 A2999 RMK A01 T00141028  RH  074%=      5-min Rain = 0
KMES 180830Z 31001KT 02/M02 A2999 RMK A01 T00181024  RH  074%=      5-min Rain = 0
KMES 180835Z 29002KT 02/M02 A2999 RMK A01 T00191023  RH  075%=      5-min Rain = 0
KMES 180840Z 24002KT 02/M02 A2999 RMK A01 T00191021  RH  075%=      5-min Rain = 0
KMES 180845Z 23002KT 02/M02 A2998 RMK A01 T00201021  RH  075%=      5-min Rain = 0
KMES 180850Z 24002KT 02/M02 A2998 RMK A01 T00191022  RH  075%=      5-min Rain = 0
KMES 180855Z 26002KT 02/M03 A2998 RMK A01 T00171025  RH  074%=      5-min Rain = 0
KMES 180900Z 25003KT 02/M02 A2998 RMK A01 T00191019  RH  076%=      5-min Rain = 0
KMES 180905Z 24003KT 02/M02 A2998 RMK A01 T00231016  RH  076%=      5-min Rain = 0
KMES 180910Z 23002KT 03/M02 A2997 RMK A01 T00251015  RH  075%=      5-min Rain = 0
KMES 180915Z 23002KT 02/M02 A2997 RMK A01 T00241019  RH  074%=      5-min Rain = 0
KMES 180920Z 23001KT 02/M03 A2997 RMK A01 T00181028  RH  072%=      5-min Rain = 0
KMES 180925Z 25000KT 01/M03 A2997 RMK A01 T00131033  RH  072%=      5-min Rain = 0
KMES 180930Z 00000KT 01/M04 A2997 RMK A01 T00081038  RH  072%=      5-min Rain = 0
KMES 180935Z 00000KT 01/M04 A2997 RMK A01 T00061039  RH  073%=      5-min Rain = 0
KMES 180940Z 00000KT 01/M04 A2997 RMK A01 T00051036  RH  074%=      5-min Rain = 0
KMES 180945Z 00000KT 00/M04 A2997 RMK A01 T00041036  RH  075%=      5-min Rain = 0
KMES 180950Z 00000KT 00/M04 A2997 RMK A01 T00041035  RH  075%=      5-min Rain = 0
KMES 180955Z 00000KT 01/M03 A2996 RMK A01 T00071031  RH  076%=      5-min Rain = 0
KMES 181000Z 00000KT 01/M03 A2996 RMK A01 T00091029  RH  076%=      5-min Rain = 0
KMES 181005Z 00000KT 01/M03 A2996 RMK A01 T00091029  RH  076%=      5-min Rain = 0
KMES 181010Z 00000KT 01/M03 A2996 RMK A01 T00081031  RH  076%=      5-min Rain = 0
KMES 181015Z 24001KT 01/M03 A2995 RMK A01 T00071030  RH  077%=      5-min Rain = 0
KMES 181020Z 25002KT 01/M03 A2995 RMK A01 T00101025  RH  078%=      5-min Rain = 0
KMES 181025Z 25002KT 01/M02 A2995 RMK A01 T00111024  RH  078%=      5-min Rain = 0
KMES 181030Z 25003KT 01/M02 A2995 RMK A01 T00141019  RH  079%=      5-min Rain = 0
KMES 181035Z 27001KT 02/M02 A2995 RMK A01 T00171017  RH  078%=      5-min Rain = 0
KMES 181040Z 31001KT 01/M02 A2995 RMK A01 T00141023  RH  077%=      5-min Rain = 0
KMES 181045Z 33001KT 01/M03 A2996 RMK A01 T00091028  RH  077%=      5-min Rain = 0
KMES 181050Z 31001KT 01/M03 A2996 RMK A01 T00081029  RH  077%=      5-min Rain = 0
KMES 181055Z 26001KT 01/M03 A2995 RMK A01 T00081028  RH  077%=      5-min Rain = 0
KMES 181100Z 25001KT 01/M03 A2995 RMK A01 T00081027  RH  078%=      5-min Rain = 0
KMES 181105Z 23001KT 01/M03 A2995 RMK A01 T00081025  RH  079%=      5-min Rain = 0
KMES 181110Z 23002KT 01/M03 A2995 RMK A01 T00081025  RH  079%=      5-min Rain = 0
KMES 181115Z 24002KT 01/M02 A2995 RMK A01 T00091024  RH  079%=      5-min Rain = 0
KMES 181120Z 24000KT 01/M03 A2995 RMK A01 T00051031  RH  077%=      5-min Rain = 0
KMES 181125Z 35001KT M00/M04 A2995 RMK A01 T10011040  RH  076%=      5-min Rain = 0
KMES 181130Z 35000KT M00/M04 A2995 RMK A01 T10041041  RH  076%=      5-min Rain = 0
KMES 181135Z 00000KT M00/M04 A2995 RMK A01 T10041039  RH  078%=      5-min Rain = 0
KMES 181140Z 00000KT M00/M04 A2994 RMK A01 T10021035  RH  079%=      5-min Rain = 0
KMES 181145Z 00000KT 00/03 A2994 RMK A01 T00-00-33  RH  079%=      5-min Rain = 0
KMES 181150Z 35000KT 00/M03 A2994 RMK A01 T00021030  RH  080%=      5-min Rain = 0
KMES 181155Z 35000KT 00/M03 A2994 RMK A01 T00021033  RH  078%=      5-min Rain = 0
KMES 181200Z 35000KT M00/M04 A2995 RMK A01 T10011035  RH  078%=      5-min Rain = 0
KMES 181205Z 35000KT 00/03 A2995 RMK A01 T00000-32  RH  079%=      5-min Rain = 0
KMES 181210Z 18001KT 00/03 A2995 RMK A01 T00000-32  RH  080%=      5-min Rain = 0
KMES 181215Z 17001KT 00/03 A2995 RMK A01 T00-00-32  RH  080%=      5-min Rain = 0
KMES 181220Z 18003KT M00/M03 A2995 RMK A01 T10011033  RH  080%=      5-min Rain = 0
KMES 181225Z 19002KT M00/M03 A2995 RMK A01 T10011032  RH  080%=      5-min Rain = 0
KMES 181230Z 21002KT M00/M04 A2995 RMK A01 T10031035  RH  080%=      5-min Rain = 0
KMES 181235Z 23003KT M01/M04 A2995 RMK A01 T10051036  RH  080%=      5-min Rain = 0
KMES 181240Z 23003KT M00/M03 A2995 RMK A01 T10031032  RH  081%=      5-min Rain = 0
KMES 181245Z 22004KT 00/M02 A2994 RMK A01 T00041022  RH  083%=      5-min Rain = 0
KMES 181250Z 21004KT 01/M02 A2994 RMK A01 T00121016  RH  082%=      5-min Rain = 0
KMES 181255Z 22001KT 01/M02 A2994 RMK A01 T00111024  RH  078%=      5-min Rain = 0
KMES 181300Z 26001KT M00/M04 A2994 RMK A01 T10021037  RH  078%=      5-min Rain = 0
KMES 181305Z 27002KT M00/M04 A2995 RMK A01 T10041036  RH  080%=      5-min Rain = 0
KMES 181310Z 26002KT 00/M03 A2995 RMK A01 T00021025  RH  083%=      5-min Rain = 0
KMES 181315Z 27002KT 01/M02 A2995 RMK A01 T00071021  RH  082%=      5-min Rain = 0
KMES 181320Z 27002KT 01/M02 A2995 RMK A01 T00091020  RH  082%=      5-min Rain = 0
KMES 181325Z 25003KT 01/M02 A2995 RMK A01 T00111019  RH  081%=      5-min Rain = 0
KMES 181330Z 25001KT 01/M02 A2995 RMK A01 T00121017  RH  081%=      5-min Rain = 0
KMES 181335Z 25000KT 01/M02 A2995 RMK A01 T00131018  RH  081%=      5-min Rain = 0
KMES 181340Z 00000KT 01/M02 A2995 RMK A01 T00111022  RH  079%=      5-min Rain = 0
KMES 181345Z 15001KT 01/M02 A2995 RMK A01 T00131018  RH  080%=      5-min Rain = 0
KMES 181350Z 16001KT 02/M01 A2995 RMK A01 T00201012  RH  080%=      5-min Rain = 0
KMES 181355Z 13001KT 02/M01 A2995 RMK A01 T00241013  RH  077%=      5-min Rain = 0
KMES 181400Z 12001KT 02/M02 A2994 RMK A01 T00221018  RH  075%=      5-min Rain = 0
KMES 181405Z 14000KT 03/M01 A2994 RMK A01 T00271011  RH  077%=      5-min Rain = 0
KMES 181410Z 18001KT 04/M01 A2994 RMK A01 T00351008  RH  074%=      5-min Rain = 0
KMES 181415Z 19001KT 04/M01 A2994 RMK A01 T00381008  RH  073%=      5-min Rain = 0
KMES 181420Z 20002KT 04/M01 A2994 RMK A01 T00391009  RH  072%=      5-min Rain = 0
KMES 181425Z 22001KT 04/M01 A2994 RMK A01 T00421005  RH  073%=      5-min Rain = 0
KMES 181430Z 07001KT 05/00 A2994 RMK A01 T00510002  RH  071%=      5-min Rain = 0
KMES 181435Z 08002KT 05/M00 A2995 RMK A01 T00541001  RH  068%=      5-min Rain = 0
KMES 181440Z 18001KT 06/00 A2994 RMK A01 T00590002  RH  068%=      5-min Rain = 0
KMES 181445Z 19002KT 06/00 A2994 RMK A01 T00620003  RH  067%=      5-min Rain = 0
KMES 181450Z 19002KT 06/01 A2994 RMK A01 T00640005  RH  067%=      5-min Rain = 0
KMES 181455Z 20002KT 07/01 A2995 RMK A01 T00690008  RH  066%=      5-min Rain = 0
KMES 181500Z 21002KT 07/01 A2995 RMK A01 T00740012  RH  065%=      5-min Rain = 0
KMES 181505Z 20003KT 08/02 A2995 RMK A01 T00820017  RH  064%=      5-min Rain = 0
KMES 181510Z 19001KT 09/02 A2995 RMK A01 T00890019  RH  062%=      5-min Rain = 0
KMES 181515Z 19002KT 09/02 A2995 RMK A01 T00940020  RH  060%=      5-min Rain = 0
KMES 181520Z 21004KT 10/02 A2995 RMK A01 T01010021  RH  059%=      5-min Rain = 0
KMES 181525Z 21005KT 11/02 A2995 RMK A01 T01080021  RH  056%=      5-min Rain = 0
KMES 181530Z 22004KT 11/02 A2995 RMK A01 T01140022  RH  054%=      5-min Rain = 0
KMES 181535Z 22004KT 12/02 A2995 RMK A01 T01200020  RH  051%=      5-min Rain = 0
KMES 181540Z 22005KT 12/02 A2994 RMK A01 T01240020  RH  050%=      5-min Rain = 0
KMES 181545Z 22006KT 13/02 A2994 RMK A01 T01280020  RH  049%=      5-min Rain = 0
KMES 181550Z 23007KT 13/02 A2994 RMK A01 T01310020  RH  047%=      5-min Rain = 0
KMES 181555Z 22006KT 14/02 A2994 RMK A01 T01350020  RH  046%=      5-min Rain = 0
KMES 181600Z 22005KT 14/02 A2994 RMK A01 T01370020  RH  045%=      5-min Rain = 0
KMES 181605Z 22006KT 14/02 A2994 RMK A01 T01410019  RH  044%=      5-min Rain = 0
KMES 181610Z 23007KT 14/02 A2994 RMK A01 T01440019  RH  043%=      5-min Rain = 0
KMES 181615Z 22005KT 15/02 A2994 RMK A01 T01470019  RH  043%=      5-min Rain = 0
KMES 181620Z 21006KT 15/02 A2994 RMK A01 T01540019  RH  041%=      5-min Rain = 0
KMES 181625Z 23005KT 16/02 A2994 RMK A01 T01590018  RH  039%=      5-min Rain = 0
KMES 181630Z 23006KT 16/02 A2994 RMK A01 T01630018  RH  038%=      5-min Rain = 0
KMES 181635Z 23007KT 17/02 A2993 RMK A01 T01660016  RH  037%=      5-min Rain = 0
KMES 181640Z 21005KT 17/02 A2993 RMK A01 T01670016  RH  037%=      5-min Rain = 0
KMES 181645Z 22006KT 17/02 A2993 RMK A01 T01710017  RH  036%=      5-min Rain = 0
KMES 181650Z 23006KT 17/01 A2993 RMK A01 T01730014  RH  035%=      5-min Rain = 0
KMES 181655Z 22006KT 17/02 A2993 RMK A01 T01730015  RH  035%=      5-min Rain = 0
KMES 181700Z 23006KT 18/01 A2993 RMK A01 T01780013  RH  034%=      5-min Rain = 0
KMES 181705Z 24006KT 18/01 A2993 RMK A01 T01820013  RH  033%=      5-min Rain = 0
KMES 181710Z 23005KT 18/01 A2993 RMK A01 T01830012  RH  032%=      5-min Rain = 0
KMES 181715Z 24003KT 19/01 A2993 RMK A01 T01850010  RH  031%=      5-min Rain = 0
KMES 181720Z 25004KT 19/01 A2993 RMK A01 T01880009  RH  031%=      5-min Rain = 0
KMES 181725Z 30002KT 19/01 A2993 RMK A01 T01910010  RH  030%=      5-min Rain = 0
KMES 181730Z 27002KT 20/01 A2992 RMK A01 T01970011  RH  029%=      5-min Rain = 0
KMES 181735Z 25003KT 20/01 A2992 RMK A01 T02000009  RH  028%=      5-min Rain = 0
KMES 181740Z 27002KT 20/01 A2992 RMK A01 T02020009  RH  028%=      5-min Rain = 0
KMES 181745Z 28003KT 20/01 A2992 RMK A01 T02040007  RH  027%=      5-min Rain = 0
KMES 181750Z 29002KT 21/00 A2992 RMK A01 T02060004  RH  026%=      5-min Rain = 0
KMES 181755Z 30003KT 21/00 A2991 RMK A01 T02090003  RH  026%=      5-min Rain = 0
KMES 181800Z 29002KT 21/00 A2991 RMK A01 T02100001  RH  025%=      5-min Rain = 0
KMES 181805Z 24003KT 21/00 A2991 RMK A01 T02130002  RH  025%=      5-min Rain = 0
KMES 181810Z 20002KT 21/00 A2991 RMK A01 T02130000  RH  025%=      5-min Rain = 0
KMES 181815Z 23004KT 22/00 A299 RMK A01 T02160003  RH  025%=      5-min Rain = 0
KMES 181820Z 21003KT 22/00 A2989 RMK A01 T02190004  RH  024%=      5-min Rain = 0
KMES 181825Z 17003KT 22/00 A2989 RMK A01 T02200003  RH  024%=      5-min Rain = 0
KMES 181830Z 18003G8KT 22/00 A2989 RMK A01 T02230001  RH  023%=      5-min Rain = 0
KMES 181835Z 21005KT 22/00 A2989 RMK A01 T02240001  RH  023%=      5-min Rain = 0
KMES 181840Z 18003KT 22/00 A2989 RMK A01 T02230001  RH  023%=      5-min Rain = 0
KMES 181845Z 17003KT 23/00 A2989 RMK A01 T02250002  RH  023%=      5-min Rain = 0
KMES 181850Z 17003KT 23/00 A2988 RMK A01 T02270003  RH  023%=      5-min Rain = 0
KMES 181855Z 22004KT 23/00 A2988 RMK A01 T02280004  RH  023%=      5-min Rain = 0
KMES 181900Z 22004KT 23/00 A2988 RMK A01 T02270003  RH  023%=      5-min Rain = 0
KMES 181905Z 18002KT 23/00 A2988 RMK A01 T02300001  RH  022%=      5-min Rain = 0
KMES 181910Z 18002KT 23/00 A2988 RMK A01 T02340001  RH  022%=      5-min Rain = 0
KMES 181915Z 20002KT 24/M00 A2988 RMK A01 T02371002  RH  021%=      5-min Rain = 0
KMES 181920Z 18003KT 24/M00 A2988 RMK A01 T02371004  RH  020%=      5-min Rain = 0
KMES 181925Z 18003KT 24/M00 A2987 RMK A01 T02361004  RH  021%=      5-min Rain = 0
KMES 181930Z 19003KT 24/M00 A2987 RMK A01 T02371004  RH  020%=      5-min Rain = 0
KMES 181935Z 21001KT 24/M01 A2987 RMK A01 T02381005  RH  020%=      5-min Rain = 0
KMES 181940Z 19000KT 24/M01 A2986 RMK A01 T02431005  RH  020%=      5-min Rain = 0
KMES 181945Z 18002KT 25/M01 A2986 RMK A01 T02481008  RH  019%=      5-min Rain = 0
KMES 181950Z 16002KT 25/M01 A2986 RMK A01 T02461010  RH  018%=      5-min Rain = 0
KMES 181955Z 23002KT 25/M01 A2986 RMK A01 T02471014  RH  018%=      5-min Rain = 0
KMES 182000Z 28002KT 25/M02 A2985 RMK A01 T02451016  RH  018%=      5-min Rain = 0
KMES 182005Z 18003KT 25/M02 A2985 RMK A01 T02481018  RH  017%=      5-min Rain = 0
KMES 182010Z 21004KT 25/M03 A2985 RMK A01 T02471025  RH  016%=      5-min Rain = 0
KMES 182015Z 22004KT 25/M03 A2985 RMK A01 T02461025  RH  017%=      5-min Rain = 0
KMES 182020Z 21005KT 25/M02 A2985 RMK A01 T02471022  RH  017%=      5-min Rain = 0
KMES 182025Z 21005KT 25/M02 A2985 RMK A01 T02451023  RH  017%=      5-min Rain = 0
KMES 182030Z 21005KT 24/M02 A2985 RMK A01 T02431023  RH  017%=      5-min Rain = 0
KMES 182035Z 19003KT 25/M02 A2985 RMK A01 T02461023  RH  017%=      5-min Rain = 0
KMES 182040Z 21005KT 25/M02 A2985 RMK A01 T02481024  RH  017%=      5-min Rain = 0
KMES 182045Z 17003KT 25/M03 A2985 RMK A01 T02471025  RH  017%=      5-min Rain = 0
KMES 182050Z 20005KT 25/M02 A2985 RMK A01 T02461024  RH  017%=      5-min Rain = 0
KMES 182055Z 22005G11KT 25/M02 A2985 RMK A01 T02451023  RH  017%=      5-min Rain = 0
KMES 182100Z 20007KT 25/M02 A2985 RMK A01 T02451021  RH  017%=      5-min Rain = 0
KMES 182105Z 19005KT 25/M02 A2985 RMK A01 T02451020  RH  017%=      5-min Rain = 0
KMES 182110Z 21005KT 25/M02 A2984 RMK A01 T02451021  RH  017%=      5-min Rain = 0
KMES 182115Z 20005KT 25/M02 A2985 RMK A01 T02451021  RH  017%=      5-min Rain = 0
KMES 182120Z 20005KT 25/M02 A2985 RMK A01 T02461021  RH  017%=      5-min Rain = 0
KMES 182125Z 19005KT 25/M02 A2985 RMK A01 T02461020  RH  017%=      5-min Rain = 0
KMES 182130Z 20005KT 25/M02 A2985 RMK A01 T02461021  RH  017%=      5-min Rain = 0
KMES 182135Z 21005KT 25/M02 A2985 RMK A01 T02461020  RH  017%=      5-min Rain = 0
KMES 182140Z 20006KT 25/M02 A2985 RMK A01 T02451020  RH  017%=      5-min Rain = 0
KMES 182145Z 22006KT 25/M02 A2985 RMK A01 T02451021  RH  017%=      5-min Rain = 0
KMES 182150Z 21005KT 24/M02 A2985 RMK A01 T02441021  RH  017%=      5-min Rain = 0
KMES 182155Z 19006KT 24/M02 A2985 RMK A01 T02441021  RH  017%=      5-min Rain = 0
KMES 182200Z 20005KT 24/M02 A2985 RMK A01 T02431021  RH  017%=      5-min Rain = 0
KMES 182205Z 20006KT 24/M02 A2985 RMK A01 T02431022  RH  017%=      5-min Rain = 0
KMES 182210Z 20006KT 24/M02 A2985 RMK A01 T02431021  RH  017%=      5-min Rain = 0
KMES 182215Z 19006KT 24/M02 A2984 RMK A01 T02411021  RH  018%=      5-min Rain = 0
KMES 182220Z 19006KT 24/M02 A2984 RMK A01 T02411021  RH  018%=      5-min Rain = 0
KMES 182225Z 20008KT 24/M02 A2984 RMK A01 T02401021  RH  018%=      5-min Rain = 0
KMES 182230Z 19006KT 24/M02 A2985 RMK A01 T02391021  RH  018%=      5-min Rain = 0
KMES 182235Z 20007KT 24/M02 A2985 RMK A01 T02381020  RH  018%=      5-min Rain = 0
KMES 182240Z 19006KT 24/M02 A2985 RMK A01 T02371019  RH  018%=      5-min Rain = 0
KMES 182245Z 19006KT 24/M02 A2985 RMK A01 T02361018  RH  018%=      5-min Rain = 0
KMES 182250Z 20006KT 24/M02 A2985 RMK A01 T02351017  RH  019%=      5-min Rain = 0
KMES 182255Z 20006KT 23/M02 A2985 RMK A01 T02331016  RH  019%=      5-min Rain = 0
KMES 182300Z 20005KT 23/M01 A2986 RMK A01 T02321014  RH  020%=      5-min Rain = 0
KMES 182305Z 20004KT 23/M01 A2986 RMK A01 T02301014  RH  020%=      5-min Rain = 0
KMES 182310Z 21004KT 23/M01 A2986 RMK A01 T02281013  RH  020%=      5-min Rain = 0
KMES 182315Z 22004KT 23/M01 A2986 RMK A01 T02251013  RH  021%=      5-min Rain = 0
KMES 182320Z 22003KT 22/M01 A2986 RMK A01 T02211013  RH  021%=      5-min Rain = 0
KMES 182325Z 21002KT 22/M01 A2987 RMK A01 T02201012  RH  021%=      5-min Rain = 0
KMES 182330Z 21001KT 22/M01 A2987 RMK A01 T02191013  RH  021%=      5-min Rain = 0
KMES 182335Z 29001KT 21/M01 A2987 RMK A01 T02111012  RH  023%=      5-min Rain = 0
KMES 182340Z 29002KT 20/M01 A2988 RMK A01 T02041010  RH  024%=      5-min Rain = 0
KMES 182345Z 28003KT 21/M01 A2988 RMK A01 T02051012  RH  023%=      5-min Rain = 0
KMES 182350Z 29003KT 20/M01 A2988 RMK A01 T02031012  RH  024%=      5-min Rain = 0
KMES 182355Z 31003KT 20/M01 A2988 RMK A01 T01991013  RH  024%=      5-min Rain = 0
KMES 190000Z 34005KT 18/M03 A2989 RMK A01 T01761028  RH  025%=      5-min Rain = 0
KMES 190005Z 31004KT 17/M02 A2989 RMK A01 T01671022  RH  028%=      5-min Rain = 0
KMES 190010Z 31003KT 17/M02 A2989 RMK A01 T01681022  RH  027%=      5-min Rain = 0
KMES 190015Z 31003KT 17/M02 A2989 RMK A01 T01661019  RH  028%=      5-min Rain = 0
KMES 190020Z 32003KT 16/M02 A2989 RMK A01 T01641022  RH  028%=      5-min Rain = 0
KMES 190025Z 34004KT 16/M03 A2989 RMK A01 T01561029  RH  028%=      5-min Rain = 0
KMES 190030Z 33004KT 15/M03 A299 RMK A01 T01501030  RH  029%=      5-min Rain = 0
KMES 190035Z 32005KT 15/M03 A299 RMK A01 T01471029  RH  030%=      5-min Rain = 0
KMES 190040Z 32005KT 15/M02 A299 RMK A01 T01481023  RH  031%=      5-min Rain = 0
KMES 190045Z 34007KT 14/M03 A299 RMK A01 T01421030  RH  031%=      5-min Rain = 0
KMES 190050Z 34006KT 14/M03 A299 RMK A01 T01371032  RH  031%=      5-min Rain = 0
KMES 190055Z 34006KT 14/M02 A2991 RMK A01 T01441023  RH  032%=      5-min Rain = 0
KMES 190100Z 33005KT 15/M02 A2991 RMK A01 T01541019  RH  031%=      5-min Rain = 0
KMES 190105Z 33004KT 15/M02 A2991 RMK A01 T01521019  RH  031%=      5-min Rain = 0
KMES 190110Z 33006KT 16/M02 A2992 RMK A01 T01561019  RH  030%=      5-min Rain = 0
KMES 190115Z 33005KT 16/M02 A2992 RMK A01 T01591022  RH  029%=      5-min Rain = 0
KMES 190120Z 32004KT 15/M02 A2992 RMK A01 T01521022  RH  030%=      5-min Rain = 0
KMES 190125Z 32004KT 15/M02 A2992 RMK A01 T01451023  RH  031%=      5-min Rain = 0
KMES 190130Z 32003KT 14/M02 A2992 RMK A01 T01421023  RH  032%=      5-min Rain = 0
KMES 190135Z 32003KT 14/M02 A2992 RMK A01 T01371024  RH  033%=      5-min Rain = 0
KMES 190140Z 31003KT 13/M02 A2992 RMK A01 T01341023  RH  034%=      5-min Rain = 0
KMES 190145Z 31004KT 13/M02 A2992 RMK A01 T01311022  RH  035%=      5-min Rain = 0
KMES 190150Z 31003KT 13/M02 A2992 RMK A01 T01271020  RH  036%=      5-min Rain = 0
KMES 190155Z 31003KT 12/M02 A2992 RMK A01 T01241020  RH  037%=      5-min Rain = 0
KMES 190200Z 32004KT 12/M02 A2992 RMK A01 T01211022  RH  037%=      5-min Rain = 0
KMES 190205Z 33004KT 12/M02 A2992 RMK A01 T01181023  RH  038%=      5-min Rain = 0
KMES 190210Z 32003KT 11/M03 A2992 RMK A01 T01131028  RH  037%=      5-min Rain = 0
KMES 190215Z 32002KT 11/M03 A2992 RMK A01 T01101026  RH  039%=      5-min Rain = 0
KMES 190220Z 32003KT 11/M02 A2992 RMK A01 T01101018  RH  041%=      5-min Rain = 0
KMES 190225Z 32002KT 11/M02 A2992 RMK A01 T01131016  RH  041%=      5-min Rain = 0
KMES 190230Z 32003KT 11/M02 A2993 RMK A01 T01131021  RH  040%=      5-min Rain = 0
KMES 190235Z 33004KT 11/M03 A2992 RMK A01 T01091027  RH  039%=      5-min Rain = 0
KMES 190240Z 33005KT 10/M02 A2992 RMK A01 T01031024  RH  041%=      5-min Rain = 0
KMES 190245Z 34006KT 10/M02 A2992 RMK A01 T01041019  RH  043%=      5-min Rain = 0
KMES 190250Z 34005KT 10/M02 A2992 RMK A01 T01021022  RH  042%=      5-min Rain = 0
KMES 190255Z 35005KT 10/M02 A2993 RMK A01 T01001019  RH  044%=      5-min Rain = 0
KMES 190300Z 33004KT 11/M01 A2993 RMK A01 T01061014  RH  044%=      5-min Rain = 0
KMES 190305Z 32004KT 11/M01 A2993 RMK A01 T01091012  RH  043%=      5-min Rain = 0
KMES 190310Z 32004KT 11/M01 A2993 RMK A01 T01071011  RH  044%=      5-min Rain = 0
KMES 190315Z 33005KT 11/M01 A2993 RMK A01 T01091008  RH  045%=      5-min Rain = 0
KMES 190320Z 33005KT 11/M01 A2993 RMK A01 T01121009  RH  043%=      5-min Rain = 0
KMES 190325Z 33005KT 11/M01 A2993 RMK A01 T01101008  RH  044%=      5-min Rain = 0
KMES 190330Z 32004KT 11/M01 A2993 RMK A01 T01081006  RH  045%=      5-min Rain = 0
KMES 190335Z 31003KT 11/M01 A2993 RMK A01 T01081006  RH  045%=      5-min Rain = 0
KMES 190340Z 31002KT 11/M01 A2994 RMK A01 T01061006  RH  046%=      5-min Rain = 0
KMES 190345Z 32002KT 10/M01 A2994 RMK A01 T01031010  RH  046%=      5-min Rain = 0
KMES 190350Z 32003KT 10/M01 A2994 RMK A01 T00991013  RH  046%=      5-min Rain = 0
KMES 190355Z 31003KT 10/M01 A2994 RMK A01 T00951014  RH  047%=      5-min Rain = 0
KMES 190400Z 31003KT 09/M01 A2994 RMK A01 T00921012  RH  049%=      5-min Rain = 0
KMES 190405Z 31003KT 09/M01 A2994 RMK A01 T00901012  RH  049%=      5-min Rain = 0
KMES 190410Z 31003KT 09/M01 A2995 RMK A01 T00921007  RH  050%=      5-min Rain = 0
KMES 190415Z 32002KT 09/M01 A2995 RMK A01 T00921007  RH  051%=      5-min Rain = 0
KMES 190420Z 31002KT 09/M01 A2994 RMK A01 T00911006  RH  051%=      5-min Rain = 0
KMES 190425Z 31002KT 09/M00 A2995 RMK A01 T00941003  RH  051%=      5-min Rain = 0
KMES 190430Z 31003KT 10/M00 A2995 RMK A01 T00961003  RH  050%=      5-min Rain = 0
KMES 190435Z 31004KT 10/M00 A2994 RMK A01 T00951004  RH  051%=      5-min Rain = 0
KMES 190440Z 32004KT 10/M00 A2994 RMK A01 T00951002  RH  051%=      5-min Rain = 0
KMES 190445Z 33005KT 10/M00 A2994 RMK A01 T00951004  RH  051%=      5-min Rain = 0
KMES 190450Z 33004KT 09/M01 A2994 RMK A01 T00931005  RH  051%=      5-min Rain = 0
KMES 190455Z 33003KT 09/M01 A2994 RMK A01 T00861011  RH  051%=      5-min Rain = 0
KMES 190500Z 34003KT 08/M01 A2994 RMK A01 T00821010  RH  053%=      5-min Rain = 0
KMES 190505Z 33003KT 08/M01 A2994 RMK A01 T00831005  RH  055%=      5-min Rain = 0
KMES 190510Z 32003KT 09/M00 A2994 RMK A01 T00861001  RH  055%=      5-min Rain = 0
KMES 190515Z 32002KT 09/M00 A2994 RMK A01 T00861001  RH  055%=      5-min Rain = 0
KMES 190520Z 32003KT 09/M00 A2994 RMK A01 T00861002  RH  055%=      5-min Rain = 0
KMES 190525Z 32004KT 09/M00 A2994 RMK A01 T00851001  RH  055%=      5-min Rain = 0
KMES 190530Z 33004KT 08/M00 A2994 RMK A01 T00841002  RH  055%=      5-min Rain = 0
KMES 190535Z 33003KT 08/M01 A2995 RMK A01 T00811006  RH  055%=      5-min Rain = 0
KMES 190540Z 33003KT 08/M01 A2995 RMK A01 T00761010  RH  055%=      5-min Rain = 0
KMES 190545Z 33004KT 07/M01 A2995 RMK A01 T00721011  RH  056%=      5-min Rain = 0
KMES 190550Z 32003KT 07/M01 A2994 RMK A01 T00721007  RH  058%=      5-min Rain = 0
KMES 190555Z 33003KT 07/M01 A2994 RMK A01 T00721006  RH  058%=      5-min Rain = 0

Page generated in 0.0191 seconds.